createdAt,value
2018-11-13T00:36:07.097Z,14.43
2018-11-13T00:38:35.674Z,13.97
2018-11-13T00:41:04.554Z,12.57
2018-11-13T00:43:33.333Z,15.40
2018-11-13T00:46:01.748Z,15.80
2018-11-13T00:48:30.983Z,15.47
2018-11-13T00:51:00.314Z,15.23
2018-11-13T00:53:30.022Z,15.03
2018-11-13T00:55:59.168Z,15.30
2018-11-13T00:58:27.849Z,15.47
2018-11-13T01:00:56.606Z,16.50
2018-11-13T01:03:25.730Z,16.63
2018-11-13T01:05:54.639Z,16.53
2018-11-13T01:08:22.881Z,16.67
2018-11-13T01:10:51.437Z,15.90
2018-11-13T01:13:20.679Z,15.70
2018-11-13T01:15:49.466Z,16.20
2018-11-13T01:18:18.007Z,17.47
2018-11-13T01:20:46.618Z,14.83
2018-11-13T01:23:15.169Z,15.77
2018-11-13T01:25:43.701Z,19.00
2018-11-13T01:28:12.262Z,16.30
2018-11-13T01:30:40.813Z,16.13
2018-11-13T01:33:09.429Z,15.37
2018-11-13T01:35:37.933Z,15.57
2018-11-13T01:38:06.723Z,17.10
2018-11-13T01:40:35.274Z,16.13
2018-11-13T01:43:03.873Z,17.93
2018-11-13T01:45:32.366Z,17.17
2018-11-13T01:48:00.966Z,16.83
2018-11-13T01:50:29.482Z,17.53
2018-11-13T01:52:58.026Z,15.67
2018-11-13T01:55:26.610Z,14.87
2018-11-13T01:57:55.214Z,14.90
2018-11-13T02:00:25.575Z,16.63
2018-11-13T02:02:55.381Z,17.93
2018-11-13T02:05:25.014Z,17.40
2018-11-13T02:08:02.503Z,16.97
2018-11-13T02:13:43.697Z,17.87
2018-11-13T02:16:21.081Z,14.90
2018-11-13T02:19:02.122Z,17.27
2018-11-13T02:24:22.423Z,18.20
2018-11-13T02:27:17.873Z,16.00
2018-11-13T03:05:19.976Z,12.27
2018-11-13T03:07:51.700Z,11.37
2018-11-13T03:10:22.157Z,13.17
2018-11-13T03:12:53.042Z,12.40
2018-11-13T03:15:23.468Z,10.63
2018-11-13T03:17:52.356Z,11.40
2018-11-13T03:20:21.203Z,11.37
2018-11-13T03:22:50.287Z,11.03
2018-11-13T03:50:57.585Z,7.47
2018-11-13T03:53:29.930Z,6.03
2018-11-13T03:56:02.831Z,7.10
2018-11-13T03:58:33.078Z,7.43
2018-11-13T04:16:26.314Z,5.80
2018-11-13T04:19:20.568Z,7.80
2018-11-13T04:21:56.781Z,8.10
2018-11-13T04:24:36.913Z,7.27
2018-11-13T04:27:14.418Z,7.27
2018-11-13T04:29:45.486Z,6.83
2018-11-13T04:32:16.786Z,7.07
2018-11-13T05:35:38.691Z,5.00
2018-11-13T05:41:22.309Z,4.80
2018-11-13T06:08:25.003Z,4.60
2018-11-13T06:10:53.889Z,5.00
2018-11-13T06:13:22.515Z,4.20
2018-11-13T06:15:51.055Z,4.40
2018-11-13T06:18:19.667Z,4.20
2018-11-13T06:20:55.599Z,7.03
2018-11-13T06:23:24.138Z,3.77
2018-11-13T06:25:52.628Z,3.70
2018-11-13T06:28:21.427Z,4.27
2018-11-13T06:30:57.435Z,4.23
2018-11-13T06:33:26.428Z,3.67
2018-11-13T06:35:55.098Z,4.10
2018-11-13T06:38:23.853Z,3.83
2018-11-13T06:40:52.671Z,4.03
2018-11-13T06:43:21.628Z,3.90
2018-11-13T06:45:50.483Z,4.30
2018-11-13T06:48:26.643Z,4.33
2018-11-13T06:50:55.302Z,3.83
2018-11-13T06:53:24.131Z,4.03
2018-11-13T06:55:57.388Z,4.83
2018-11-13T06:58:26.045Z,4.00
2018-11-13T07:00:54.599Z,3.50
2018-11-13T07:03:23.281Z,3.77
2018-11-13T07:05:51.963Z,3.53
2018-11-13T07:08:23.219Z,4.43
2018-11-13T07:10:51.939Z,3.80
2018-11-13T07:13:20.419Z,3.37
2018-11-13T07:15:48.950Z,4.60
2018-11-13T07:18:17.475Z,3.77
2018-11-13T07:20:46.005Z,3.27
2018-11-13T07:23:14.564Z,3.27
2018-11-13T07:25:43.146Z,2.97
2018-11-13T07:28:11.712Z,3.30
2018-11-13T07:30:40.343Z,2.90
2018-11-13T07:33:08.902Z,2.53
2018-11-13T07:35:37.751Z,2.80
2018-11-13T07:38:06.378Z,2.60
2018-11-13T07:40:35.078Z,2.83
2018-11-13T07:43:03.669Z,2.80
2018-11-13T07:45:32.457Z,2.30
2018-11-13T07:48:00.999Z,2.00
2018-11-13T07:50:29.530Z,2.30
2018-11-13T07:52:58.195Z,1.90
2018-11-13T07:55:27.244Z,2.10
2018-11-13T07:57:55.761Z,2.10
2018-11-13T08:00:25.168Z,2.10
2018-11-13T08:02:55.169Z,2.37
2018-11-13T08:05:28.118Z,1.90
2018-11-13T08:07:56.818Z,2.07
2018-11-13T08:10:25.525Z,1.63
2018-11-13T08:12:54.280Z,2.07
2018-11-13T08:15:22.959Z,1.73
2018-11-13T08:17:51.529Z,1.70
2018-11-13T08:20:20.080Z,1.80
2018-11-13T08:22:48.808Z,2.30
2018-11-13T08:25:18.755Z,1.63
2018-11-13T08:27:47.360Z,1.70
2018-11-13T08:30:18.275Z,1.63
2018-11-13T08:32:47.651Z,1.80
2018-11-13T08:35:16.517Z,2.50
2018-11-13T08:37:45.459Z,1.70
2018-11-13T08:40:15.275Z,1.93
2018-11-13T08:42:44.647Z,1.67
2018-11-13T08:45:13.811Z,1.97
2018-11-13T08:47:44.903Z,1.80
2018-11-13T08:50:14.204Z,2.10
2018-11-13T08:52:43.994Z,1.70
2018-11-13T08:55:17.108Z,2.10
2018-11-13T08:57:45.766Z,1.70
2018-11-13T09:00:15.768Z,1.83
2018-11-13T09:02:44.979Z,1.90
2018-11-13T09:05:14.281Z,2.67
2018-11-13T09:07:42.801Z,2.20
2018-11-13T09:10:13.514Z,2.00
2018-11-13T09:12:42.599Z,1.87
2018-11-13T09:15:12.790Z,2.70
2018-11-13T09:17:41.806Z,2.00
2018-11-13T09:20:12.280Z,1.80
2018-11-13T09:22:41.166Z,2.20
2018-11-13T09:25:12.584Z,2.47
2018-11-13T09:27:41.391Z,2.23
2018-11-13T09:30:12.914Z,1.77
2018-11-13T09:32:43.288Z,2.20
2018-11-13T09:35:13.287Z,2.10
2018-11-13T09:37:42.671Z,2.27
2018-11-13T09:40:21.601Z,2.10
2018-11-13T09:42:51.263Z,4.27
2018-11-13T09:45:19.756Z,1.70
2018-11-13T09:47:48.338Z,1.80
2018-11-13T09:50:18.190Z,1.90
2018-11-13T09:52:48.758Z,1.80
2018-11-13T09:55:18.884Z,2.50
2018-11-13T09:57:47.389Z,1.90
2018-11-13T10:00:23.916Z,2.77
2018-11-13T10:02:54.380Z,1.83
2018-11-13T10:05:23.091Z,1.77
2018-11-13T10:07:52.788Z,2.00
2018-11-13T10:10:21.848Z,1.80
2018-11-13T10:12:50.313Z,2.00
2018-11-13T10:15:21.238Z,1.93
2018-11-13T10:17:49.984Z,2.00
2018-11-13T10:20:19.639Z,1.93
2018-11-13T10:22:50.020Z,2.10
2018-11-13T10:25:18.909Z,1.90
2018-11-13T10:27:48.128Z,2.10
2018-11-13T10:30:20.018Z,1.70
2018-11-13T10:32:49.429Z,1.60
2018-11-13T10:35:19.884Z,1.97
2018-11-13T10:37:48.442Z,2.00
2018-11-13T10:40:18.447Z,1.73
2018-11-13T10:42:46.948Z,1.80
2018-11-13T10:45:17.778Z,1.40
2018-11-13T10:47:46.431Z,1.70
2018-11-13T10:50:17.825Z,1.80
2018-11-13T10:52:46.408Z,1.63
2018-11-13T10:55:14.978Z,1.73
2018-11-13T10:57:43.781Z,2.00
2018-11-13T11:00:18.917Z,1.80
2018-11-13T11:02:53.016Z,2.07
2018-11-13T11:05:22.292Z,1.77
2018-11-13T11:07:50.907Z,1.60
2018-11-13T11:10:20.375Z,1.57
2018-11-13T11:12:48.964Z,1.60
2018-11-13T11:15:17.502Z,1.83
2018-11-13T11:17:46.141Z,1.80
2018-11-13T11:20:17.431Z,1.80
2018-11-13T11:22:46.237Z,1.67
2018-11-13T11:25:15.358Z,3.40
2018-11-13T11:27:44.257Z,2.10
2018-11-13T11:30:15.020Z,1.57
2018-11-13T11:32:43.752Z,1.93
2018-11-13T11:35:12.452Z,1.60
2018-11-13T11:37:41.652Z,1.60
2018-11-13T11:40:14.020Z,1.83
2018-11-13T11:42:42.683Z,1.60
2018-11-13T11:45:12.909Z,1.70
2018-11-13T11:47:41.738Z,1.53
2018-11-13T11:50:11.688Z,1.83
2018-11-13T11:52:40.508Z,1.43
2018-11-13T11:55:09.676Z,1.70
2018-11-13T11:57:38.290Z,1.87
2018-11-13T12:00:13.681Z,1.80
2018-11-13T12:02:42.485Z,1.93
2018-11-13T12:05:11.447Z,2.10
2018-11-13T12:07:40.186Z,1.47
2018-11-13T12:10:10.754Z,1.70
2018-11-13T12:12:39.312Z,1.93
2018-11-13T12:15:11.964Z,1.93
2018-11-13T12:17:40.406Z,1.80
2018-11-13T12:20:10.704Z,1.70
2018-11-13T12:22:39.180Z,1.80
2018-11-13T12:25:09.535Z,2.30
2018-11-13T12:27:37.996Z,1.70
2018-11-13T12:30:11.858Z,1.60
2018-11-13T12:32:40.329Z,2.00
2018-11-13T12:35:10.459Z,1.90
2018-11-13T12:37:40.709Z,2.10
2018-11-13T12:40:13.028Z,1.90
2018-11-13T12:42:41.569Z,1.93
2018-11-13T12:45:11.266Z,1.50
2018-11-13T12:47:40.419Z,1.80
2018-11-13T12:50:09.889Z,2.23
2018-11-13T12:52:38.377Z,2.63
2018-11-13T12:55:08.921Z,1.80
2018-11-13T12:57:37.341Z,2.13
2018-11-13T13:00:12.459Z,2.40
2018-11-13T13:02:40.933Z,2.23
2018-11-13T13:05:09.903Z,1.93
2018-11-13T13:07:38.425Z,1.10
2018-11-13T13:10:09.288Z,1.83
2018-11-13T13:12:37.793Z,1.80
2018-11-13T13:15:11.493Z,1.20
2018-11-13T13:17:40.119Z,1.63
2018-11-13T13:20:11.133Z,2.03
2018-11-13T13:22:39.976Z,1.93
2018-11-13T13:25:11.907Z,2.27
2018-11-13T13:27:40.562Z,1.77
2018-11-13T13:30:14.962Z,1.90
2018-11-13T13:32:43.654Z,1.87
2018-11-13T13:36:07.800Z,1.63
2018-11-13T13:38:37.649Z,1.70
2018-11-13T13:41:06.410Z,1.87
2018-11-13T13:43:35.914Z,1.67
2018-11-13T13:46:04.546Z,1.57
2018-11-13T13:48:33.078Z,1.63
2018-11-13T13:51:01.514Z,2.00
2018-11-13T13:53:30.219Z,1.50
2018-11-13T13:55:58.858Z,1.50
2018-11-13T13:58:27.464Z,1.67
2018-11-13T14:00:56.877Z,1.10
2018-11-13T14:03:25.264Z,1.60
2018-11-13T14:05:53.804Z,1.53
2018-11-13T14:08:22.296Z,1.60
2018-11-13T14:10:50.823Z,1.70
2018-11-13T14:13:19.295Z,2.07
2018-11-13T14:15:47.794Z,1.70
2018-11-13T14:18:16.240Z,1.50
2018-11-13T14:20:44.725Z,1.87
2018-11-13T14:23:13.299Z,1.47
2018-11-13T14:25:41.795Z,1.63
2018-11-13T14:28:10.332Z,2.10
2018-11-13T14:30:38.916Z,1.67
2018-11-13T14:33:09.762Z,1.50
2018-11-13T14:35:38.470Z,1.57
2018-11-13T14:38:06.988Z,1.80
2018-11-13T14:40:41.894Z,2.57
2018-11-13T14:43:10.631Z,1.97
2018-11-13T14:45:39.091Z,1.90
2018-11-13T14:48:08.027Z,1.80
2018-11-13T14:50:36.801Z,1.70
2018-11-13T14:53:06.128Z,1.80
2018-11-13T14:55:36.879Z,1.97
2018-11-13T14:58:06.417Z,2.10
2018-11-13T15:00:35.976Z,2.00
2018-11-13T15:03:05.691Z,2.07
2018-11-13T15:05:34.606Z,2.00
2018-11-13T15:08:04.693Z,1.70
2018-11-13T15:10:43.508Z,1.90
2018-11-13T15:13:12.384Z,1.80
2018-11-13T15:15:40.987Z,1.70
2018-11-13T15:18:10.016Z,1.80
2018-11-13T15:20:38.525Z,1.93
2018-11-13T15:23:08.048Z,2.23
2018-11-13T15:25:40.198Z,1.90
2018-11-13T15:28:09.435Z,2.23
2018-11-13T15:30:40.354Z,1.97
2018-11-13T15:33:11.500Z,2.10
2018-11-13T15:35:40.029Z,2.23
2018-11-13T15:38:08.784Z,2.10
2018-11-13T15:40:37.336Z,1.70
2018-11-13T15:43:06.243Z,1.90
2018-11-13T15:45:34.790Z,2.07
2018-11-13T15:48:04.584Z,2.13
2018-11-13T15:50:34.148Z,2.00
2018-11-13T15:53:02.641Z,2.00
2018-11-13T15:55:31.143Z,2.30
2018-11-13T15:58:00.053Z,2.37
2018-11-13T16:00:30.345Z,2.50
2018-11-13T16:03:00.037Z,2.10
2018-11-13T16:05:40.743Z,2.03
2018-11-13T16:08:09.975Z,2.80
2018-11-13T16:10:38.578Z,2.43
2018-11-13T16:13:07.219Z,2.30
2018-11-13T16:15:35.667Z,2.80
2018-11-13T16:18:06.628Z,2.87
2018-11-13T16:20:35.091Z,3.10
2018-11-13T16:23:03.584Z,2.60
2018-11-13T16:25:32.868Z,2.40
2018-11-13T16:28:01.292Z,2.73
2018-11-13T16:30:35.314Z,2.30
2018-11-13T16:33:03.689Z,2.40
2018-11-13T16:35:32.716Z,2.60
2018-11-13T16:38:02.449Z,3.37
2018-11-13T16:40:31.833Z,2.93
2018-11-13T16:43:00.440Z,2.50
2018-11-13T16:45:29.899Z,3.03
2018-11-13T16:47:59.075Z,3.70
2018-11-13T16:50:30.804Z,3.00
2018-11-13T16:52:59.673Z,2.57
2018-11-13T16:55:33.454Z,2.70
2018-11-13T16:58:03.211Z,2.80
2018-11-13T17:00:31.801Z,3.03
2018-11-13T17:03:00.344Z,3.30
2018-11-13T17:05:29.448Z,3.20
2018-11-13T17:07:57.889Z,3.43
2018-11-13T17:10:30.552Z,3.87
2018-11-13T17:12:59.593Z,2.60
2018-11-13T17:15:29.546Z,2.83
2018-11-13T17:17:59.231Z,3.20
2018-11-13T17:20:27.867Z,3.13
2018-11-13T17:22:56.321Z,3.67
2018-11-13T17:25:27.180Z,2.87
2018-11-13T17:27:55.965Z,2.40
2018-11-13T17:30:28.320Z,2.90
2018-11-13T17:32:57.931Z,3.20
2018-11-13T17:35:28.772Z,2.90
2018-11-13T17:38:07.650Z,2.90
2018-11-13T17:40:36.736Z,2.97
2018-11-13T17:43:06.463Z,3.47
2018-11-13T17:45:39.376Z,3.43
2018-11-13T17:48:08.957Z,3.27
2018-11-13T17:50:39.509Z,3.37
2018-11-13T17:53:08.592Z,3.93
2018-11-13T17:55:37.217Z,3.20
2018-11-13T17:58:08.492Z,3.53
2018-11-13T18:00:39.355Z,3.53
2018-11-13T18:03:09.012Z,4.23
2018-11-13T18:05:40.144Z,4.17
2018-11-13T18:08:09.458Z,3.73
2018-11-13T18:10:39.213Z,4.37
2018-11-13T18:13:07.952Z,4.70
2018-11-13T18:15:36.955Z,4.53
2018-11-13T18:18:06.195Z,4.80
2018-11-13T18:20:36.077Z,5.90
2018-11-13T18:23:04.665Z,5.77
2018-11-13T18:25:33.164Z,8.40
2018-11-13T18:28:02.319Z,6.90
2018-11-13T18:30:31.872Z,4.87
2018-11-13T18:33:01.157Z,5.43
2018-11-13T18:35:31.093Z,5.93
2018-11-13T18:38:00.591Z,5.40
2018-11-13T18:40:29.342Z,5.53
2018-11-13T18:42:59.166Z,5.50
2018-11-13T18:45:29.631Z,4.80
2018-11-13T18:47:58.120Z,4.00
2018-11-13T18:50:30.067Z,4.00
2018-11-13T18:52:58.671Z,3.60
2018-11-13T18:55:27.148Z,4.07
2018-11-13T18:57:55.629Z,4.60
2018-11-13T19:00:27.277Z,4.50
2018-11-13T19:02:55.761Z,4.77
2018-11-13T19:05:24.879Z,4.87
2018-11-13T19:07:53.574Z,5.60
2018-11-13T19:10:29.579Z,5.60
2018-11-13T19:12:58.800Z,5.20
2018-11-13T19:15:28.021Z,4.40
2018-11-13T19:17:56.569Z,5.43
2018-11-13T19:23:05.332Z,4.87
2018-11-13T19:25:34.890Z,4.90
2018-11-13T19:28:03.476Z,5.30
2018-11-13T19:30:32.593Z,5.80
2018-11-13T19:33:01.261Z,6.67
2018-11-13T19:35:29.844Z,6.00
2018-11-13T19:38:04.832Z,4.50
2018-11-13T19:40:34.236Z,5.70
2018-11-13T19:43:04.340Z,6.00
2018-11-13T19:45:32.749Z,5.83
2018-11-13T19:48:02.138Z,6.70
2018-11-13T19:50:32.006Z,6.70
2018-11-13T19:53:00.587Z,7.10
2018-11-13T19:55:29.735Z,7.83
2018-11-13T19:57:58.278Z,6.47
2018-11-13T20:00:29.008Z,7.97
2018-11-13T20:02:58.789Z,7.67
2018-11-13T20:05:28.568Z,6.87
2018-11-13T20:07:57.288Z,6.03
2018-11-13T20:10:27.469Z,5.43
2018-11-13T20:12:57.436Z,5.57
2018-11-13T20:15:26.793Z,5.70
2018-11-13T20:17:55.343Z,4.30
2018-11-13T20:20:25.277Z,4.40
2018-11-13T20:22:54.077Z,4.73
2018-11-13T20:25:23.861Z,4.33
2018-11-13T20:27:52.343Z,4.97
2018-11-13T20:30:23.256Z,3.97
2018-11-13T20:32:52.866Z,4.77
2018-11-13T20:35:21.660Z,4.73
2018-11-13T20:37:50.992Z,5.07
2018-11-13T20:40:22.123Z,4.80
2018-11-13T20:42:51.857Z,4.80
2018-11-13T20:45:20.758Z,4.53
2018-11-13T20:47:49.275Z,4.90
2018-11-13T20:50:18.999Z,4.40
2018-11-13T20:52:47.528Z,5.80
2018-11-13T20:55:17.152Z,6.60
2018-11-13T20:57:45.869Z,5.17
2018-11-13T21:00:16.914Z,4.63
2018-11-13T21:02:45.768Z,4.90
2018-11-13T21:05:14.565Z,5.07
2018-11-13T21:07:43.154Z,5.03
2018-11-13T21:10:17.422Z,5.27
2018-11-13T21:12:46.246Z,5.57
2018-11-13T21:15:16.340Z,5.43
2018-11-13T21:17:44.792Z,5.03
2018-11-13T21:20:14.733Z,5.37
2018-11-13T21:22:43.304Z,4.37
2018-11-13T21:25:16.169Z,5.10
2018-11-13T21:27:45.446Z,5.17
2018-11-13T21:30:18.853Z,4.70
2018-11-13T21:32:50.908Z,3.93
2018-11-13T21:35:19.698Z,5.47
2018-11-13T21:37:50.272Z,5.10
2018-11-13T21:40:20.144Z,5.40
2018-11-13T21:42:49.628Z,5.60
2018-11-13T21:45:19.098Z,5.17
2018-11-13T21:47:47.796Z,5.65
2018-11-13T21:50:18.120Z,5.17
2018-11-13T21:52:47.901Z,5.80
2018-11-13T21:55:19.833Z,4.90
2018-11-13T21:57:49.084Z,5.00
2018-11-13T22:00:21.225Z,4.70
2018-11-13T22:02:52.253Z,4.77
2018-11-13T22:05:21.778Z,4.40
2018-11-13T22:07:50.289Z,4.33
2018-11-13T22:10:18.857Z,5.17
2018-11-13T22:12:47.699Z,4.10
2018-11-13T22:15:17.488Z,4.33
2018-11-13T22:17:46.002Z,4.60
2018-11-13T22:20:15.625Z,4.47
2018-11-13T22:22:44.323Z,4.57
2018-11-13T22:25:16.210Z,4.20
2018-11-13T22:27:45.704Z,4.40
2018-11-13T22:30:14.996Z,4.97
2018-11-13T22:32:45.369Z,4.63
2018-11-13T22:35:15.086Z,4.40
2018-11-13T22:37:44.612Z,5.00
2018-11-13T22:40:18.250Z,3.80
2018-11-13T22:42:46.974Z,3.90
2018-11-13T22:45:17.010Z,4.53
2018-11-13T22:47:45.582Z,4.03
2018-11-13T22:50:16.958Z,3.97
2018-11-13T22:52:46.644Z,5.20
2018-11-13T22:55:21.885Z,4.90
2018-11-13T22:57:52.285Z,4.80
2018-11-13T23:00:22.797Z,4.67
2018-11-13T23:02:52.879Z,4.33
2018-11-13T23:05:21.517Z,4.20
2018-11-13T23:07:50.701Z,5.10
2018-11-13T23:10:19.442Z,5.07
2018-11-13T23:12:48.368Z,5.57
2018-11-13T23:15:25.566Z,4.73
2018-11-13T23:17:54.165Z,5.03
2018-11-13T23:20:22.765Z,5.33
2018-11-13T23:22:51.368Z,5.00
2018-11-13T23:25:20.626Z,4.33
2018-11-13T23:27:50.464Z,5.13
2018-11-13T23:30:20.560Z,5.07
2018-11-13T23:32:50.158Z,4.70
2018-11-13T23:35:18.855Z,4.63
2018-11-13T23:37:48.724Z,4.83
2018-11-13T23:40:19.444Z,5.23
2018-11-13T23:42:48.505Z,4.53
2018-11-13T23:45:18.458Z,4.73
2018-11-13T23:47:47.837Z,4.90
2018-11-13T23:50:16.601Z,4.67
2018-11-13T23:52:46.202Z,5.63
2018-11-13T23:55:15.638Z,4.30
2018-11-13T23:57:44.801Z,4.53
